Time;durP1;ratioP1;P1;durP2;ratioP2;P2;SDS_P1;SDS_P2;PMS_P1;PMS_P2;Temp;Humidity;BMP_temperature;BMP_pressure;BME280_temperature;BME280_humidity;BME280_pressure;Samples;Min_cycle;Max_cycle;Signal;HPM_P1;HPM_P2
2023/04/07 00:00:31;;;;;;;6.30;5.30;;;13.30;64.20;;;;;;5071704;28;20551;-68
2023/04/07 00:03:01;;;;;;;8.03;5.10;;;13.30;64.10;;;;;;5052138;28;20447;-68
2023/04/07 00:05:27;;;;;;;6.77;5.40;;;13.30;64.10;;;;;;5052326;28;20548;-69
2023/04/07 00:07:56;;;;;;;6.93;5.57;;;13.30;64.00;;;;;;5071157;28;20788;-67
2023/04/07 00:10:23;;;;;;;8.77;5.83;;;13.30;64.00;;;;;;5071750;28;20443;-69
2023/04/07 00:12:50;;;;;;;6.40;5.73;;;13.20;63.80;;;;;;5071525;28;20447;-67
2023/04/07 00:15:17;;;;;;;6.53;5.03;;;13.20;64.10;;;;;;5072141;28;20810;-68
2023/04/07 00:17:44;;;;;;;6.10;5.27;;;13.20;63.90;;;;;;5054077;28;20544;-68
2023/04/07 00:20:12;;;;;;;6.90;5.40;;;13.20;64.20;;;;;;5069196;28;21016;-69
2023/04/07 00:22:38;;;;;;;5.53;5.03;;;13.10;64.40;;;;;;5069402;28;20447;-69
2023/04/07 00:25:08;;;;;;;5.53;5.03;;;13.10;64.40;;;;;;5071755;28;20534;-68
2023/04/07 00:27:35;;;;;;;6.37;5.20;;;13.10;64.30;;;;;;5070128;28;20483;-68
2023/04/07 00:30:02;;;;;;;6.83;4.93;;;13.00;63.90;;;;;;5070563;28;20453;-69
2023/04/07 00:32:28;;;;;;;5.20;4.70;;;13.00;64.20;;;;;;5071468;28;20526;-68
2023/04/07 00:34:55;;;;;;;6.27;5.20;;;13.10;64.70;;;;;;5071618;28;20935;-68
2023/04/07 00:37:22;;;;;;;5.00;4.50;;;13.10;64.50;;;;;;5056573;28;20484;-68
2023/04/07 00:39:50;;;;;;;6.93;4.80;;;13.20;65.00;;;;;;5057211;28;20452;-67
2023/04/07 00:42:18;;;;;;;6.77;4.93;;;13.30;64.90;;;;;;5080356;28;20451;-69
2023/04/07 00:44:45;;;;;;;5.90;4.87;;;13.30;64.70;;;;;;5071355;28;20530;-69
2023/04/07 00:47:12;;;;;;;5.53;4.43;;;13.30;64.40;;;;;;5058180;28;20580;-68
2023/04/07 00:49:39;;;;;;;5.13;4.63;;;13.40;64.40;;;;;;5055553;28;20447;-68
2023/04/07 00:52:07;;;;;;;6.40;4.80;;;13.40;64.10;;;;;;5070938;28;20437;-68
2023/04/07 00:54:34;;;;;;;5.53;4.97;;;13.40;63.00;;;;;;5058715;28;20530;-68
2023/04/07 00:57:01;;;;;;;5.53;5.03;;;13.30;62.90;;;;;;5059754;28;20470;-69
2023/04/07 00:59:31;;;;;;;5.40;4.43;;;13.40;63.30;;;;;;5053356;28;20551;-68
2023/04/07 01:02:03;;;;;;;4.87;4.47;;;13.40;63.90;;;;;;5070929;28;20574;-68
2023/04/07 01:04:33;;;;;;;6.00;4.20;;;13.40;65.00;;;;;;5070733;28;20444;-67
2023/04/07 01:07:06;;;;;;;4.80;4.30;;;13.40;65.70;;;;;;5064572;28;20566;-68
2023/04/07 01:09:39;;;;;;;5.90;5.30;;;13.50;66.30;;;;;;5070490;28;20450;-67
2023/04/07 01:12:21;;;;;;;5.30;4.80;;;13.40;65.10;;;;;;5070749;28;20850;-68
2023/04/07 01:14:54;;;;;;;6.47;5.20;;;13.30;65.20;;;;;;5070733;28;20803;-68
2023/04/07 01:17:23;;;;;;;5.07;4.43;;;13.30;66.10;;;;;;5058143;28;20522;-68
2023/04/07 01:19:58;;;;;;;5.77;5.13;;;13.20;66.40;;;;;;5057565;28;21168;-67
2023/04/07 01:22:32;;;;;;;5.77;4.90;;;13.20;66.10;;;;;;5070354;28;20461;-68
2023/04/07 01:25:17;;;;;;;6.57;4.63;;;13.20;65.40;;;;;;5069696;28;20451;-68
2023/04/07 01:27:56;;;;;;;6.50;5.10;;;13.20;65.40;;;;;;5068966;28;20585;-68
2023/04/07 01:30:28;;;;;;;5.60;5.00;;;13.20;65.50;;;;;;5058567;28;20470;-67
2023/04/07 01:32:58;;;;;;;5.30;4.80;;;13.20;65.40;;;;;;5053714;28;20526;-67
2023/04/07 01:35:26;;;;;;;6.03;5.10;;;13.20;64.80;;;;;;5069965;28;20451;-68
2023/04/07 01:37:55;;;;;;;5.17;4.43;;;13.10;65.00;;;;;;5069802;28;20495;-68
2023/04/07 01:40:22;;;;;;;5.23;4.70;;;13.10;65.00;;;;;;5070035;28;20461;-67
2023/04/07 01:42:50;;;;;;;5.00;4.50;;;13.10;65.00;;;;;;5070475;28;20776;-68
2023/04/07 01:45:19;;;;;;;4.60;4.20;;;13.10;65.10;;;;;;5069756;28;20483;-67
2023/04/07 01:47:47;;;;;;;4.87;4.40;;;13.10;65.30;;;;;;5055312;28;20492;-68
2023/04/07 01:50:15;;;;;;;5.13;4.60;;;13.20;65.40;;;;;;5060791;28;20474;-67
2023/04/07 01:52:43;;;;;;;5.43;4.60;;;13.20;65.50;;;;;;5070415;28;20786;-68
2023/04/07 01:55:11;;;;;;;5.10;4.17;;;13.20;65.20;;;;;;5070613;28;20439;-68
2023/04/07 01:57:38;;;;;;;5.53;4.27;;;13.30;65.10;;;;;;5069354;28;20463;-68
2023/04/07 02:00:06;;;;;;;4.47;4.07;;;13.30;64.50;;;;;;5070016;28;20538;-68
2023/04/07 02:02:36;;;;;;;4.27;3.87;;;13.30;64.40;;;;;;5070010;28;20471;-68
2023/04/07 02:05:07;;;;;;;4.40;4.00;;;13.30;65.00;;;;;;5070071;28;20562;-68
2023/04/07 02:07:42;;;;;;;5.30;4.47;;;13.30;64.70;;;;;;5057084;28;20490;-68
2023/04/07 02:10:12;;;;;;;4.97;4.10;;;13.30;64.40;;;;;;5059878;28;20453;-68
2023/04/07 02:12:41;;;;;;;5.47;4.40;;;13.30;64.60;;;;;;5069912;28;20456;-68
2023/04/07 02:15:11;;;;;;;5.00;4.40;;;13.30;64.50;;;;;;5069957;28;20526;-68
2023/04/07 02:17:40;;;;;;;5.10;4.50;;;13.30;64.80;;;;;;5056600;28;20464;-68
2023/04/07 02:20:10;;;;;;;4.70;4.30;;;13.30;65.50;;;;;;5061375;28;20447;-67
2023/04/07 02:22:38;;;;;;;5.20;4.20;;;13.30;65.50;;;;;;5069649;28;20463;-68
2023/04/07 02:25:23;;;;;;;4.07;3.63;;;13.30;65.40;;;;;;5069937;28;20538;-68
2023/04/07 02:27:50;;;;;;;5.60;4.40;;;13.30;65.50;;;;;;5068515;28;20490;-69
2023/04/07 02:30:17;;;;;;;5.43;4.53;;;13.30;65.50;;;;;;5069755;28;20498;-68
2023/04/07 02:32:44;;;;;;;4.40;4.00;;;13.30;65.90;;;;;;5069348;28;20456;-69
2023/04/07 02:35:13;;;;;;;4.93;4.43;;;13.30;66.00;;;;;;5070193;28;20804;-68
2023/04/07 02:37:40;;;;;;;5.40;4.20;;;13.30;66.10;;;;;;5057011;28;20486;-68
2023/04/07 02:40:08;;;;;;;4.67;4.20;;;13.30;66.60;;;;;;5066817;28;20554;-68
2023/04/07 02:42:36;;;;;;;4.50;4.10;;;13.30;67.10;;;;;;5069582;28;20443;-68
2023/04/07 02:45:03;;;;;;;4.80;4.40;;;13.20;67.10;;;;;;5070099;28;20443;-69
2023/04/07 02:47:30;;;;;;;5.20;4.70;;;13.20;67.50;;;;;;5068911;28;20490;-69
2023/04/07 02:49:57;;;;;;;5.10;4.60;;;13.20;67.60;;;;;;5069316;28;20554;-69
2023/04/07 02:52:25;;;;;;;4.87;4.27;;;13.10;67.90;;;;;;5069257;28;21033;-69
2023/04/07 02:54:52;;;;;;;4.67;4.27;;;13.10;68.00;;;;;;5070071;28;20453;-68
2023/04/07 02:57:19;;;;;;;5.00;4.50;;;13.10;68.10;;;;;;5063852;28;20462;-69
2023/04/07 02:59:46;;;;;;;5.80;5.20;;;13.10;68.20;;;;;;5062362;28;20443;-69
2023/04/07 03:02:13;;;;;;;5.03;4.50;;;13.10;68.30;;;;;;5073014;28;20549;-69
2023/04/07 03:04:40;;;;;;;6.13;4.50;;;13.10;68.20;;;;;;5072927;28;20526;-69
2023/04/07 03:07:07;;;;;;;5.00;4.47;;;13.10;68.20;;;;;;5065623;28;20483;-69
2023/04/07 03:09:35;;;;;;;7.27;5.20;;;13.10;69.00;;;;;;5060501;28;20542;-69
2023/04/07 03:12:02;;;;;;;5.03;4.63;;;13.00;68.20;;;;;;5073034;28;20530;-69
2023/04/07 03:14:29;;;;;;;5.47;4.97;;;13.00;68.10;;;;;;5073205;28;21019;-68
2023/04/07 03:16:56;;;;;;;6.13;5.10;;;13.00;68.00;;;;;;5066919;28;20503;-68
2023/04/07 03:19:23;;;;;;;5.00;3.90;;;13.00;68.30;;;;;;5058320;28;20538;-68
2023/04/07 03:21:50;;;;;;;5.00;4.53;;;12.90;68.50;;;;;;5072927;28;20454;-68
2023/04/07 03:24:17;;;;;;;4.60;3.93;;;12.90;68.60;;;;;;5073186;28;20542;-67
2023/04/07 03:26:45;;;;;;;4.03;3.70;;;12.90;68.60;;;;;;5071487;28;20482;-67
2023/04/07 03:29:12;;;;;;;4.73;4.33;;;12.90;68.80;;;;;;5072280;28;20485;-68
2023/04/07 03:31:39;;;;;;;5.40;4.30;;;12.90;68.60;;;;;;5072271;28;20447;-68
2023/04/07 03:34:06;;;;;;;6.17;4.73;;;12.80;68.50;;;;;;5072759;28;20447;-68
2023/04/07 03:36:33;;;;;;;4.87;4.20;;;12.80;68.50;;;;;;5070486;28;20542;-67
2023/04/07 03:39:00;;;;;;;6.70;4.43;;;12.80;68.50;;;;;;5053956;28;20488;-67
2023/04/07 03:41:27;;;;;;;5.47;4.60;;;12.80;68.50;;;;;;5059680;28;20451;-68
2023/04/07 03:43:55;;;;;;;5.23;4.73;;;12.70;68.50;;;;;;5072459;28;20458;-68
2023/04/07 03:46:23;;;;;;;6.30;5.70;;;12.70;68.80;;;;;;5072630;28;20455;-68
2023/04/07 03:48:50;;;;;;;6.03;5.43;;;12.60;69.10;;;;;;5052517;28;20902;-69
2023/04/07 03:51:17;;;;;;;6.70;5.30;;;12.50;69.30;;;;;;5071959;28;20483;-68
2023/04/07 03:53:44;;;;;;;6.23;5.27;;;12.50;69.60;;;;;;5072134;28;20453;-68
2023/04/07 03:56:11;;;;;;;5.97;5.47;;;12.40;69.50;;;;;;5072353;28;20534;-67
2023/04/07 03:58:40;;;;;;;6.50;5.37;;;12.40;69.70;;;;;;5052977;28;20464;-67
2023/04/07 04:01:08;;;;;;;5.63;5.10;;;12.30;69.70;;;;;;5070179;28;20487;-67
2023/04/07 04:03:35;;;;;;;6.40;5.40;;;12.30;69.80;;;;;;5071938;28;20447;-68
2023/04/07 04:06:08;;;;;;;6.20;4.90;;;12.30;69.80;;;;;;5072017;28;20459;-69
2023/04/07 04:08:35;;;;;;;7.43;5.00;;;12.40;70.20;;;;;;5052532;28;20570;-69
2023/04/07 04:11:02;;;;;;;5.23;4.73;;;12.40;70.10;;;;;;5069312;28;20997;-68
2023/04/07 04:13:29;;;;;;;5.10;4.70;;;12.40;70.00;;;;;;5071592;28;20542;-68
2023/04/07 04:15:56;;;;;;;5.60;4.70;;;12.40;70.00;;;;;;5072005;28;20444;-68
2023/04/07 04:18:24;;;;;;;4.83;4.43;;;12.50;70.10;;;;;;5071164;28;20483;-68
2023/04/07 04:20:51;;;;;;;6.27;4.83;;;12.50;70.00;;;;;;5071661;28;20500;-67
2023/04/07 04:23:18;;;;;;;5.40;4.90;;;12.50;69.90;;;;;;5071214;28;20455;-68
2023/04/07 04:25:45;;;;;;;5.03;4.37;;;12.50;70.00;;;;;;5071834;28;20919;-69
2023/04/07 04:28:11;;;;;;;5.20;4.80;;;12.50;70.10;;;;;;5070356;28;20478;-68
2023/04/07 04:30:38;;;;;;;4.53;4.13;;;12.50;70.10;;;;;;5071436;28;20523;-68
2023/04/07 04:33:06;;;;;;;5.13;4.70;;;12.50;70.00;;;;;;5071599;28;20523;-69
2023/04/07 04:35:34;;;;;;;5.80;5.27;;;12.50;69.90;;;;;;5071311;28;20517;-68
2023/04/07 04:38:01;;;;;;;5.40;4.40;;;12.50;70.20;;;;;;5058493;28;20464;-68
2023/04/07 04:40:28;;;;;;;5.17;4.67;;;12.50;70.10;;;;;;5063251;28;20538;-68
2023/04/07 04:42:55;;;;;;;5.00;4.53;;;12.50;70.00;;;;;;5071304;28;20538;-68
2023/04/07 04:45:21;;;;;;;4.97;4.50;;;12.50;70.00;;;;;;5070813;28;20490;-69
2023/04/07 04:47:48;;;;;;;4.80;4.40;;;12.50;70.00;;;;;;5063936;28;20475;-69
2023/04/07 04:50:15;;;;;;;4.77;4.27;;;12.50;70.00;;;;;;5070804;28;20479;-68
2023/04/07 04:52:44;;;;;;;5.23;4.63;;;12.50;70.20;;;;;;5070903;28;20447;-68
2023/04/07 04:55:11;;;;;;;4.30;3.90;;;12.50;70.30;;;;;;5070987;28;20443;-67
2023/04/07 04:57:38;;;;;;;5.23;4.77;;;12.50;70.30;;;;;;5061817;28;20548;-68
2023/04/07 05:00:07;;;;;;;5.20;4.70;;;12.50;70.40;;;;;;5059049;28;20554;-68
2023/04/07 05:02:33;;;;;;;4.87;4.37;;;12.50;70.40;;;;;;5071293;28;20542;-68
2023/04/07 05:05:00;;;;;;;5.87;3.87;;;12.50;70.30;;;;;;5070794;28;20539;-69
2023/04/07 05:07:27;;;;;;;5.07;4.57;;;12.40;70.10;;;;;;5063329;28;20571;-69
2023/04/07 05:09:56;;;;;;;5.03;4.40;;;12.50;69.90;;;;;;5057231;28;20531;-68
2023/04/07 05:12:22;;;;;;;4.43;4.03;;;12.40;69.80;;;;;;5070329;28;20452;-69
2023/04/07 05:14:50;;;;;;;4.30;4.00;;;12.40;69.80;;;;;;5070515;28;20522;-68
2023/04/07 05:17:16;;;;;;;5.20;4.40;;;12.40;70.10;;;;;;5069834;28;20464;-69
2023/04/07 05:19:43;;;;;;;4.60;4.20;;;12.40;70.10;;;;;;5069930;28;20559;-68
2023/04/07 05:22:10;;;;;;;6.23;5.37;;;12.50;70.20;;;;;;5070305;28;20526;-69
2023/04/07 05:24:37;;;;;;;5.13;4.63;;;12.50;70.30;;;;;;5070737;28;20451;-69
2023/04/07 05:27:05;;;;;;;5.70;4.70;;;12.50;70.20;;;;;;5067517;28;20467;-69
2023/04/07 05:29:32;;;;;;;5.50;4.93;;;12.60;70.40;;;;;;5057505;28;20485;-68
2023/04/07 05:32:00;;;;;;;6.73;5.70;;;12.60;70.50;;;;;;5070488;28;20447;-69
2023/04/07 05:34:27;;;;;;;5.03;4.63;;;12.60;70.80;;;;;;5070312;28;20459;-68
2023/04/07 05:36:54;;;;;;;3.97;3.67;;;12.60;70.80;;;;;;5068804;28;20546;-69
2023/04/07 05:39:21;;;;;;;4.67;4.00;;;12.60;71.00;;;;;;5055745;28;20526;-68
2023/04/07 05:41:48;;;;;;;4.60;3.83;;;12.60;70.70;;;;;;5070414;28;20530;-68
2023/04/07 05:44:16;;;;;;;4.83;4.43;;;12.60;70.70;;;;;;5070637;28;20877;-68
2023/04/07 05:46:43;;;;;;;4.70;4.20;;;12.60;70.50;;;;;;5070212;28;20494;-68
2023/04/07 05:49:10;;;;;;;4.20;3.80;;;12.60;70.60;;;;;;5068837;28;20577;-67
2023/04/07 05:51:37;;;;;;;4.90;4.40;;;12.60;70.70;;;;;;5070303;28;20458;-67
2023/04/07 05:54:04;;;;;;;4.50;4.10;;;12.60;70.80;;;;;;5070465;28;20538;-68
2023/04/07 05:56:31;;;;;;;5.10;4.60;;;12.60;70.80;;;;;;5069896;28;20444;-68
2023/04/07 05:59:00;;;;;;;4.80;4.33;;;12.60;70.70;;;;;;5069267;28;20467;-68
2023/04/07 06:01:29;;;;;;;4.67;4.27;;;12.60;70.50;;;;;;5069886;28;20466;-68
2023/04/07 06:03:57;;;;;;;5.50;5.00;;;12.60;70.40;;;;;;5070355;28;20943;-68
2023/04/07 06:06:25;;;;;;;5.30;4.80;;;12.60;70.20;;;;;;5070129;28;20562;-68
2023/04/07 06:08:52;;;;;;;5.20;4.70;;;12.70;70.10;;;;;;5053323;28;20528;-68
2023/04/07 06:11:19;;;;;;;6.90;6.17;;;12.70;70.10;;;;;;5069750;28;20530;-68
2023/04/07 06:13:46;;;;;;;7.63;6.07;;;12.70;70.10;;;;;;5070197;28;20455;-69
2023/04/07 06:16:13;;;;;;;5.93;5.27;;;12.70;70.10;;;;;;5069755;28;20532;-67
2023/04/07 06:18:41;;;;;;;6.07;5.17;;;12.80;70.30;;;;;;5058244;28;20491;-68
2023/04/07 06:21:08;;;;;;;5.93;4.53;;;12.80;70.20;;;;;;5069041;28;20856;-69
2023/04/07 06:23:35;;;;;;;4.47;4.07;;;12.80;70.00;;;;;;5070049;28;20538;-68
2023/04/07 06:26:02;;;;;;;4.57;4.17;;;12.80;70.00;;;;;;5069550;28;20479;-68
2023/04/07 06:28:29;;;;;;;4.63;4.23;;;12.90;70.50;;;;;;5062389;28;20491;-68
2023/04/07 06:30:56;;;;;;;5.17;4.60;;;12.90;70.30;;;;;;5063734;28;20455;-68
2023/04/07 06:33:24;;;;;;;4.10;3.63;;;13.00;70.30;;;;;;5073727;28;20451;-68
2023/04/07 06:35:52;;;;;;;4.40;4.00;;;13.10;70.40;;;;;;5073893;28;20451;-69
2023/04/07 06:38:19;;;;;;;4.67;4.17;;;13.10;69.60;;;;;;5072519;28;20459;-69
2023/04/07 06:40:46;;;;;;;4.83;4.37;;;13.20;69.60;;;;;;5053854;28;20547;-69
2023/04/07 06:43:13;;;;;;;4.97;4.40;;;13.20;69.60;;;;;;5073674;28;20538;-69
2023/04/07 06:45:40;;;;;;;5.57;4.50;;;13.30;69.60;;;;;;5037300;28;20447;-68
2023/04/07 06:48:09;;;;;;;4.83;4.37;;;13.40;69.40;;;;;;5063539;28;20571;-69
2023/04/07 06:50:37;;;;;;;4.60;4.13;;;13.40;68.30;;;;;;5068933;28;20461;-69
2023/04/07 06:53:05;;;;;;;5.10;4.50;;;13.50;68.40;;;;;;5073186;28;20447;-69
2023/04/07 06:55:32;;;;;;;5.20;4.70;;;13.50;67.80;;;;;;5073514;28;20450;-69
2023/04/07 06:57:59;;;;;;;5.10;4.60;;;13.60;67.20;;;;;;5064345;28;20571;-69
2023/04/07 07:00:29;;;;;;;5.30;4.50;;;13.60;67.20;;;;;;5053533;28;20622;-69
2023/04/07 07:02:55;;;;;;;5.83;4.43;;;13.70;66.90;;;;;;5071104;28;20458;-68
2023/04/07 07:05:23;;;;;;;6.13;5.00;;;13.70;66.70;;;;;;5073467;28;20530;-68
2023/04/07 07:07:50;;;;;;;5.93;4.77;;;13.80;66.40;;;;;;5071956;28;20522;-69
2023/04/07 07:10:21;;;;;;;5.27;4.77;;;13.70;66.90;;;;;;5073018;28;20538;-69
2023/04/07 07:12:48;;;;;;;5.30;4.80;;;13.70;66.50;;;;;;5072719;28;20473;-68
2023/04/07 07:15:15;;;;;;;5.87;4.93;;;13.80;66.10;;;;;;5069571;28;20446;-70
2023/04/07 07:17:42;;;;;;;5.67;5.17;;;13.90;66.20;;;;;;5068562;28;20539;-69
2023/04/07 07:20:10;;;;;;;6.40;4.80;;;14.00;66.40;;;;;;5052963;28;20539;-69
2023/04/07 07:22:37;;;;;;;5.47;4.97;;;14.00;66.10;;;;;;5059182;28;20527;-69
2023/04/07 07:25:04;;;;;;;5.53;5.03;;;14.00;65.70;;;;;;5073089;28;20505;-69
2023/04/07 07:27:33;;;;;;;5.63;5.13;;;14.10;66.40;;;;;;5071306;28;20547;-69
2023/04/07 07:30:00;;;;;;;5.70;4.80;;;14.20;66.60;;;;;;5072641;28;20483;-69
2023/04/07 07:32:26;;;;;;;5.13;4.50;;;14.40;66.40;;;;;;5071863;28;20560;-69
2023/04/07 07:34:53;;;;;;;6.50;5.80;;;14.50;66.40;;;;;;5072745;28;20451;-70
2023/04/07 07:37:20;;;;;;;5.77;5.13;;;14.60;66.90;;;;;;5070751;28;20534;-69
2023/04/07 07:39:47;;;;;;;5.70;5.20;;;14.70;66.10;;;;;;5061104;28;20538;-69
2023/04/07 07:42:14;;;;;;;6.37;5.17;;;14.80;66.10;;;;;;5071177;28;20482;-70
2023/04/07 07:44:42;;;;;;;5.47;4.97;;;15.00;65.60;;;;;;5072557;28;20451;-69
2023/04/07 07:47:09;;;;;;;5.07;4.50;;;15.00;64.80;;;;;;5071567;28;20558;-69
2023/04/07 07:49:36;;;;;;;4.40;4.00;;;15.10;63.90;;;;;;5071962;28;20908;-63
2023/04/07 07:52:03;;;;;;;4.30;3.90;;;15.10;63.90;;;;;;5071806;28;20535;-68
2023/04/07 07:54:30;;;;;;;4.20;3.73;;;15.10;63.50;;;;;;5070853;28;20491;-69
2023/04/07 07:57:01;;;;;;;3.97;3.33;;;15.20;63.00;;;;;;5072353;28;20903;-68
2023/04/07 07:59:28;;;;;;;5.30;4.80;;;15.20;63.30;;;;;;5072105;28;20451;-68
2023/04/07 08:01:57;;;;;;;4.63;4.23;;;15.30;64.20;;;;;;5072205;28;20530;-68
2023/04/07 08:04:24;;;;;;;5.47;4.83;;;15.30;64.40;;;;;;5070368;28;20463;-69
2023/04/07 08:06:51;;;;;;;5.47;4.57;;;15.40;64.30;;;;;;5070019;28;20494;-68
2023/04/07 08:09:18;;;;;;;4.90;4.40;;;15.50;65.20;;;;;;5080250;28;20489;-69
2023/04/07 08:11:47;;;;;;;6.30;4.17;;;15.60;64.70;;;;;;5056429;28;20475;-69
2023/04/07 08:14:14;;;;;;;5.20;3.90;;;15.70;64.80;;;;;;5072739;28;20565;-68
2023/04/07 08:16:41;;;;;;;5.13;4.30;;;15.80;64.20;;;;;;5070332;28;20469;-68
2023/04/07 08:19:09;;;;;;;4.30;3.90;;;15.90;63.60;;;;;;5071877;28;20542;-68
2023/04/07 08:21:36;;;;;;;4.97;3.67;;;16.00;63.20;;;;;;5071215;28;20450;-69
2023/04/07 08:24:03;;;;;;;4.03;3.50;;;16.00;61.30;;;;;;5070908;28;20565;-69
2023/04/07 08:26:30;;;;;;;4.17;3.50;;;16.00;60.10;;;;;;5070133;28;20487;-69
2023/04/07 08:28:57;;;;;;;7.03;3.50;;;16.00;60.50;;;;;;5072799;28;20496;-69
2023/04/07 08:31:25;;;;;;;5.00;3.80;;;15.90;59.90;;;;;;5081193;28;20825;-69
2023/04/07 08:33:53;;;;;;;4.50;3.80;;;16.00;60.00;;;;;;5087984;28;20491;-68
2023/04/07 08:36:39;;;;;;;5.27;4.43;;;15.90;59.50;;;;;;5080208;28;20459;-68
2023/04/07 08:39:06;;;;;;;5.13;3.57;;;15.90;59.20;;;;;;5072151;28;20539;-65
2023/04/07 08:41:37;;;;;;;5.10;3.67;;;15.70;59.60;;;;;;5068756;28;20562;-67
2023/04/07 08:44:04;;;;;;;3.80;3.50;;;15.80;59.70;;;;;;5070422;28;20550;-66
2023/04/07 08:46:33;;;;;;;6.43;3.57;;;15.70;59.60;;;;;;5071563;28;20550;-66
2023/04/07 08:49:01;;;;;;;3.63;3.13;;;15.80;59.40;;;;;;5076636;28;20480;-66
2023/04/07 08:51:30;;;;;;;4.83;3.90;;;15.90;59.20;;;;;;5070161;28;20887;-66
2023/04/07 08:54:06;;;;;;;4.90;3.63;;;16.00;59.00;;;;;;5068184;28;20553;-65
2023/04/07 08:56:33;;;;;;;3.23;2.90;;;16.10;59.50;;;;;;5071842;28;21069;-65
2023/04/07 08:59:01;;;;;;;5.67;3.67;;;16.30;59.60;;;;;;5071513;28;20443;-65
2023/04/07 09:01:30;;;;;;;4.40;3.50;;;16.30;58.30;;;;;;5070742;28;20451;-66
2023/04/07 09:03:57;;;;;;;4.03;3.53;;;16.20;58.60;;;;;;5075962;28;20467;-66
2023/04/07 09:06:26;;;;;;;5.13;3.67;;;16.10;58.20;;;;;;5090705;28;20553;-66
2023/04/07 09:08:53;;;;;;;5.03;3.53;;;16.10;59.00;;;;;;5091575;28;20474;-67
2023/04/07 09:11:22;;;;;;;6.97;3.30;;;16.30;59.70;;;;;;5080994;28;20553;-65
2023/04/07 09:13:49;;;;;;;4.93;3.47;;;16.60;58.90;;;;;;5070330;28;20839;-65
2023/04/07 09:16:16;;;;;;;4.10;3.20;;;16.60;58.00;;;;;;5071916;28;20563;-65
2023/04/07 09:18:44;;;;;;;4.00;3.10;;;16.70;57.80;;;;;;5070591;28;21184;-65
2023/04/07 09:21:10;;;;;;;5.50;3.17;;;16.90;57.80;;;;;;5071405;28;20851;-65
2023/04/07 09:23:39;;;;;;;3.60;2.90;;;17.20;58.70;;;;;;5071501;28;20566;-65
2023/04/07 09:26:24;;;;;;;3.43;2.83;;;17.30;56.90;;;;;;5067970;28;20559;-65
2023/04/07 09:28:53;;;;;;;4.30;3.30;;;17.10;55.20;;;;;;5051208;28;20487;-65
2023/04/07 09:31:21;;;;;;;3.67;2.60;;;16.80;55.90;;;;;;5075058;28;20562;-65
2023/04/07 09:33:48;;;;;;;3.77;2.90;;;16.80;56.60;;;;;;5071054;28;20920;-64
2023/04/07 09:36:15;;;;;;;3.53;2.50;;;16.90;56.60;;;;;;5067731;28;20551;-65
2023/04/07 09:38:44;;;;;;;3.40;2.63;;;17.00;56.20;;;;;;5061125;28;21006;-65
2023/04/07 09:41:12;;;;;;;4.23;2.73;;;17.10;55.90;;;;;;5077592;28;20462;-65
2023/04/07 09:43:43;;;;;;;4.43;2.80;;;17.30;55.20;;;;;;5071207;28;21024;-64
2023/04/07 09:46:11;;;;;;;3.87;2.60;;;17.40;55.10;;;;;;5074873;28;20945;-66
2023/04/07 09:48:39;;;;;;;3.87;3.03;;;17.50;55.30;;;;;;5074588;28;20512;-66
2023/04/07 09:51:08;;;;;;;3.83;2.97;;;17.60;55.70;;;;;;5070519;28;20452;-65
2023/04/07 09:53:42;;;;;;;4.40;3.40;;;17.60;55.60;;;;;;5069744;28;20483;-65
2023/04/07 09:56:10;;;;;;;4.43;3.13;;;17.50;55.10;;;;;;5068636;28;21023;-64
2023/04/07 09:58:40;;;;;;;3.60;3.20;;;17.40;55.40;;;;;;5071145;28;20458;-64
2023/04/07 10:01:08;;;;;;;5.10;3.90;;;17.40;56.00;;;;;;5067362;28;21017;-65
2023/04/07 10:03:35;;;;;;;3.67;3.33;;;17.40;55.80;;;;;;5077400;28;20463;-65
2023/04/07 10:06:03;;;;;;;5.93;3.70;;;17.40;55.40;;;;;;5068905;28;20499;-65
2023/04/07 10:08:32;;;;;;;6.20;4.53;;;17.30;55.90;;;;;;5054159;28;20448;-67
2023/04/07 10:11:01;;;;;;;6.17;3.60;;;17.30;55.50;;;;;;5053932;28;21230;-66
2023/04/07 10:13:29;;;;;;;5.03;3.87;;;17.30;55.90;;;;;;5073431;28;20447;-65
2023/04/07 10:15:59;;;;;;;7.40;3.00;;;17.20;55.50;;;;;;5079653;28;20874;-66
2023/04/07 10:18:30;;;;;;;5.43;3.47;;;17.10;56.20;;;;;;5054675;28;20538;-64
2023/04/07 10:21:00;;;;;;;4.83;3.77;;;17.00;55.70;;;;;;5061666;28;20466;-65
2023/04/07 10:23:38;;;;;;;4.77;3.30;;;16.90;56.00;;;;;;5077664;28;20471;-66
2023/04/07 10:26:07;;;;;;;4.37;3.53;;;16.70;56.20;;;;;;5073561;28;20491;-65
2023/04/07 10:28:38;;;;;;;4.67;4.27;;;16.50;57.50;;;;;;5074848;28;20957;-65
2023/04/07 10:31:06;;;;;;;3.93;3.53;;;16.40;59.00;;;;;;5073187;28;20554;-64
2023/04/07 10:33:50;;;;;;;6.17;4.43;;;16.30;60.10;;;;;;5073627;28;20479;-65
2023/04/07 10:36:19;;;;;;;6.30;4.60;;;16.30;62.40;;;;;;5079368;28;20507;-66
2023/04/07 10:39:19;;;;;;;7.33;4.70;;;16.30;61.80;;;;;;5077513;28;20467;-65
2023/04/07 10:41:46;;;;;;;5.80;4.30;;;16.20;62.40;;;;;;5083025;28;20500;-65
2023/04/07 10:44:49;;;;;;;5.57;4.27;;;16.20;62.00;;;;;;5074663;28;20534;-64
2023/04/07 10:47:17;;;;;;;7.27;4.33;;;16.20;61.90;;;;;;5067644;28;20482;-64
2023/04/07 10:50:18;;;;;;;5.30;3.67;;;16.30;62.10;;;;;;5072273;28;20492;-65
2023/04/07 10:52:47;;;;;;;5.93;3.73;;;16.30;61.40;;;;;;5072886;28;20456;-66
2023/04/07 10:55:34;;;;;;;3.73;3.13;;;16.30;61.00;;;;;;5074723;28;20475;-66
2023/04/07 10:58:23;;;;;;;5.00;3.97;;;16.40;61.30;;;;;;5062085;28;20959;-65
2023/04/07 11:01:18;;;;;;;5.07;3.67;;;16.40;60.70;;;;;;5067151;28;20470;-64
2023/04/07 11:03:58;;;;;;;5.17;3.57;;;16.40;60.50;;;;;;5065721;28;20934;-65
2023/04/07 11:06:26;;;;;;;4.77;3.40;;;16.40;59.80;;;;;;5079443;28;20542;-68
2023/04/07 11:08:53;;;;;;;6.53;4.53;;;16.50;60.10;;;;;;5070662;28;20450;-67
2023/04/07 11:11:38;;;;;;;4.60;3.60;;;16.70;60.90;;;;;;5073758;28;20486;-68
2023/04/07 11:14:06;;;;;;;5.50;3.80;;;16.80;59.00;;;;;;5073988;28;20534;-68
2023/04/07 11:16:41;;;;;;;5.07;3.77;;;16.90;59.30;;;;;;5079740;28;20872;-67
2023/04/07 11:19:10;;;;;;;5.07;3.23;;;16.90;58.40;;;;;;5053886;28;20946;-65
2023/04/07 11:21:37;;;;;;;4.83;3.27;;;17.10;58.40;;;;;;5066539;28;20452;-66
2023/04/07 11:24:04;;;;;;;5.80;3.60;;;17.40;58.70;;;;;;5073561;28;21269;-66
2023/04/07 11:26:40;;;;;;;5.90;3.50;;;17.50;57.50;;;;;;5071966;28;20563;-66
2023/04/07 11:29:07;;;;;;;3.17;2.70;;;17.70;56.50;;;;;;5073274;28;20439;-66
2023/04/07 11:31:35;;;;;;;4.20;2.30;;;17.90;55.40;;;;;;5070041;28;20455;-67
2023/04/07 11:34:03;;;;;;;3.70;2.20;;;17.90;54.40;;;;;;5058991;28;21026;-65
2023/04/07 11:36:32;;;;;;;3.80;2.50;;;18.00;53.70;;;;;;5067908;28;20464;-67
2023/04/07 11:39:01;;;;;;;2.20;1.83;;;18.20;54.00;;;;;;5070384;28;20443;-67
2023/04/07 11:41:29;;;;;;;2.50;1.73;;;18.50;51.70;;;;;;5072874;28;20768;-67
2023/04/07 11:44:07;;;;;;;3.13;1.60;;;18.70;48.90;;;;;;5056431;28;20475;-66
2023/04/07 11:46:34;;;;;;;2.13;1.40;;;18.80;48.50;;;;;;5082525;28;20307;-67
2023/04/07 11:49:11;;;;;;;2.80;1.70;;;19.00;48.20;;;;;;5084941;28;20203;-66
2023/04/07 11:51:41;;;;;;;3.20;1.70;;;19.00;47.40;;;;;;5071781;28;20308;-67
2023/04/07 11:54:07;;;;;;;2.57;2.20;;;19.00;48.10;;;;;;5059887;28;20453;-67
2023/04/07 11:56:45;;;;;;;5.63;2.17;;;19.00;48.20;;;;;;5060156;28;20890;-65
2023/04/07 11:59:22;;;;;;;6.40;2.67;;;18.80;48.20;;;;;;5057370;28;20283;-65
2023/04/07 12:01:51;;;;;;;3.40;2.10;;;18.80;48.00;;;;;;5071694;28;20216;-66
2023/04/07 12:04:18;;;;;;;2.87;1.93;;;19.00;49.40;;;;;;5072156;28;20481;-67
2023/04/07 12:06:47;;;;;;;3.97;2.10;;;19.30;51.30;;;;;;5068453;28;20558;-66
2023/04/07 12:09:33;;;;;;;2.73;1.70;;;19.80;51.50;;;;;;5072186;28;20258;-66
2023/04/07 12:12:00;;;;;;;4.33;2.13;;;20.20;51.00;;;;;;5071788;28;20213;-67
2023/04/07 12:14:27;;;;;;;4.10;1.83;;;20.40;50.30;;;;;;5071757;28;20213;-67
2023/04/07 12:16:56;;;;;;;3.30;1.73;;;20.40;50.20;;;;;;5057403;28;20232;-67
2023/04/07 12:19:23;;;;;;;3.20;2.10;;;20.50;50.00;;;;;;5068523;28;20205;-65
2023/04/07 12:21:51;;;;;;;2.67;1.77;;;20.50;49.70;;;;;;5071683;28;20211;-66
2023/04/07 12:24:18;;;;;;;1.67;1.33;;;20.50;49.40;;;;;;5072053;28;20278;-66
2023/04/07 12:26:45;;;;;;;2.77;1.63;;;20.50;49.30;;;;;;5070336;28;20303;-66
2023/04/07 12:29:12;;;;;;;2.67;1.60;;;20.60;48.80;;;;;;5071257;28;20232;-67
2023/04/07 12:31:39;;;;;;;3.27;1.90;;;20.60;48.70;;;;;;5070257;28;20309;-67
2023/04/07 12:34:06;;;;;;;2.07;1.53;;;20.60;49.20;;;;;;5071985;28;20235;-67
2023/04/07 12:36:33;;;;;;;2.60;1.67;;;20.70;49.40;;;;;;5070504;28;20200;-67
2023/04/07 12:39:02;;;;;;;2.27;1.90;;;20.70;48.90;;;;;;5052754;28;20214;-67
2023/04/07 12:41:30;;;;;;;2.53;1.67;;;20.60;49.10;;;;;;5051180;28;20667;-67
2023/04/07 12:43:57;;;;;;;2.40;1.70;;;20.60;49.50;;;;;;5069333;28;20201;-67
2023/04/07 12:46:23;;;;;;;2.93;1.67;;;20.70;49.70;;;;;;5071464;28;20312;-68
2023/04/07 12:48:50;;;;;;;2.50;1.80;;;20.70;49.70;;;;;;5054659;28;20789;-66
2023/04/07 12:51:17;;;;;;;4.30;1.60;;;20.70;50.30;;;;;;5051190;28;20225;-67
2023/04/07 12:53:46;;;;;;;1.30;1.20;;;20.70;50.00;;;;;;5058184;28;20211;-67
2023/04/07 12:56:14;;;;;;;1.80;1.53;;;20.60;49.40;;;;;;5070662;28;20728;-67